Beecher, Wisconsin
Current Conditions -  °F | °C
As of 8:54 AM on Thursday 23 Oct 2014 (Local Time) from KIMT Reporting Station
Haze Haze  
Wind Chill: 33°   Ceiling: Unl
Heat Index: 39°   Visibility: 5mi
Dew Point: 36°   Wind: 9mph
Humidity: 89%   Direction: 180°S
Pressure: 30.11"   Gusts: NA
Location:  45.6077°N, 87.9331°W
Report Text: KIMT 231354Z AUTO 18008KT 5SM BR SCT005 SCT095 04/02 A3011 RMK AO2 SLP207 T00390022
Loading
Personal Weather Stations






























Interactive Weather Map
Tropical Storm Tracking
New forecast layout! Learn more

10-Day Weather Forecast

Advertisements
Track Severe Weather on mobile